createdAt,value
2022-09-10T00:01:59.500Z,16.50
2022-09-10T00:04:27.882Z,16.50
2022-09-10T00:06:55.605Z,16.40
2022-09-10T00:09:22.609Z,16.50
2022-09-10T00:11:49.695Z,16.50
2022-09-10T00:14:22.740Z,16.60
2022-09-10T00:16:49.834Z,16.60
2022-09-10T00:19:16.783Z,16.50
2022-09-10T00:21:44.531Z,16.60
2022-09-10T00:24:11.477Z,16.60
2022-09-10T00:26:39.431Z,16.60
2022-09-10T00:29:09.142Z,16.60
2022-09-10T00:31:36.015Z,16.50
2022-09-10T00:34:04.511Z,16.50
2022-09-10T00:36:33.735Z,16.50
2022-09-10T00:39:03.472Z,16.50
2022-09-10T00:41:30.287Z,16.50
2022-09-10T00:44:02.497Z,16.50
2022-09-10T00:46:31.644Z,16.50
2022-09-10T00:49:01.933Z,16.50
2022-09-10T00:51:32.151Z,16.50
2022-09-10T00:54:00.016Z,16.40
2022-09-10T00:56:28.281Z,16.40
2022-09-10T00:58:55.330Z,16.40
2022-09-10T01:01:22.174Z,16.40
2022-09-10T01:03:49.741Z,16.40
2022-09-10T01:06:18.134Z,16.40
2022-09-10T01:08:44.743Z,16.40
2022-09-10T01:11:27.370Z,16.40
2022-09-10T01:14:02.921Z,16.40
2022-09-10T01:16:44.503Z,16.30
2022-09-10T01:19:17.082Z,16.30
2022-09-10T01:22:25.989Z,16.30
2022-09-10T01:25:08.093Z,16.20
2022-09-10T01:27:54.754Z,16.20
2022-09-10T01:30:24.373Z,16.20
2022-09-10T01:33:06.330Z,16.20
2022-09-10T01:35:43.268Z,16.20
2022-09-10T01:38:15.511Z,16.20
2022-09-10T01:40:43.309Z,16.10
2022-09-10T01:43:11.676Z,16.10
2022-09-10T01:46:05.145Z,16.20
2022-09-10T01:49:10.480Z,16.10
2022-09-10T01:52:15.632Z,16.10
2022-09-10T01:54:45.597Z,16.10
2022-09-10T01:57:36.776Z,16.10
2022-09-10T02:00:09.657Z,16.00
2022-09-10T02:02:43.193Z,16.00
2022-09-10T02:05:11.273Z,16.00
2022-09-10T02:07:39.533Z,15.90
2022-09-10T02:10:08.641Z,15.90
2022-09-10T02:12:35.731Z,15.90
2022-09-10T02:15:03.013Z,15.90
2022-09-10T02:17:33.730Z,15.90
2022-09-10T02:20:02.144Z,15.90
2022-09-10T02:22:31.804Z,15.90
2022-09-10T02:24:58.443Z,15.90
2022-09-10T02:27:25.207Z,15.90
2022-09-10T02:29:52.231Z,15.90
2022-09-10T02:32:18.904Z,15.90
2022-09-10T02:34:45.653Z,15.90
2022-09-10T02:37:12.413Z,15.90
2022-09-10T02:39:40.113Z,15.90
2022-09-10T02:42:07.731Z,15.90
2022-09-10T02:44:34.716Z,15.90
2022-09-10T02:47:01.384Z,15.90
2022-09-10T02:49:28.250Z,15.90
2022-09-10T02:51:55.244Z,15.90
2022-09-10T02:54:22.558Z,15.90
2022-09-10T02:56:49.846Z,15.90
2022-09-10T02:59:18.029Z,15.90
2022-09-10T03:01:45.063Z,15.90
2022-09-10T03:04:11.905Z,15.80
2022-09-10T03:06:38.559Z,15.80
2022-09-10T03:09:05.274Z,15.80
2022-09-10T03:11:31.912Z,15.80
2022-09-10T03:13:58.983Z,15.80
2022-09-10T03:16:25.743Z,15.80
2022-09-10T03:18:52.593Z,15.90
2022-09-10T03:21:25.177Z,15.90
2022-09-10T03:23:53.578Z,15.90
2022-09-10T03:26:21.965Z,15.90
2022-09-10T03:28:50.043Z,15.90
2022-09-10T03:31:18.250Z,15.90
2022-09-10T03:33:46.199Z,15.90
2022-09-10T03:36:15.637Z,16.00
2022-09-10T03:38:42.363Z,15.90
2022-09-10T03:41:09.237Z,15.90
2022-09-10T03:43:36.362Z,15.90
2022-09-10T03:46:03.531Z,15.80
2022-09-10T03:48:30.237Z,15.90
2022-09-10T03:50:57.020Z,15.90
2022-09-10T03:53:23.950Z,15.90
2022-09-10T03:55:51.983Z,16.00
2022-09-10T03:58:18.804Z,15.90
2022-09-10T04:00:46.475Z,15.90
2022-09-10T04:03:17.062Z,16.00
2022-09-10T04:05:44.093Z,16.00
2022-09-10T04:08:12.092Z,16.00
2022-09-10T04:10:39.686Z,15.90
2022-09-10T04:13:06.829Z,15.90
2022-09-10T04:15:33.748Z,15.90
2022-09-10T04:18:00.525Z,15.90
2022-09-10T04:20:27.573Z,15.90
2022-09-10T04:22:55.099Z,15.90
2022-09-10T04:25:22.121Z,15.90
2022-09-10T04:27:49.801Z,15.90
2022-09-10T04:30:17.472Z,15.90
2022-09-10T04:32:45.099Z,15.80
2022-09-10T04:35:15.227Z,15.90
2022-09-10T04:37:42.984Z,15.90
2022-09-10T04:40:10.720Z,15.90
2022-09-10T04:42:38.230Z,15.90
2022-09-10T04:45:06.070Z,15.80
2022-09-10T04:47:33.991Z,15.80
2022-09-10T04:50:01.235Z,15.80
2022-09-10T04:52:28.935Z,15.80
2022-09-10T04:54:55.597Z,15.80
2022-09-10T04:57:22.531Z,15.80
2022-09-10T04:59:49.219Z,15.90
2022-09-10T05:02:15.964Z,16.00
2022-09-10T05:04:42.836Z,15.90
2022-09-10T05:07:09.519Z,15.90
2022-09-10T05:09:36.219Z,15.90
2022-09-10T05:12:03.590Z,15.80
2022-09-10T05:14:30.741Z,15.80
2022-09-10T05:16:57.455Z,15.80
2022-09-10T05:19:24.092Z,15.80
2022-09-10T05:21:50.891Z,15.70
2022-09-10T05:24:17.637Z,15.80
2022-09-10T05:26:44.949Z,15.70
2022-09-10T05:29:11.900Z,15.70
2022-09-10T05:31:38.751Z,15.70
2022-09-10T05:34:05.435Z,15.70
2022-09-10T05:36:32.231Z,15.70
2022-09-10T05:39:00.286Z,15.80
2022-09-10T05:41:28.165Z,15.80
2022-09-10T05:43:55.099Z,15.80
2022-09-10T05:46:22.501Z,15.80
2022-09-10T05:48:49.324Z,15.80
2022-09-10T05:51:17.237Z,15.80
2022-09-10T05:53:43.930Z,15.80
2022-09-10T05:56:10.676Z,15.80
2022-09-10T05:58:37.406Z,15.80
2022-09-10T06:01:04.116Z,15.80
2022-09-10T06:03:30.766Z,15.80
2022-09-10T06:05:57.511Z,15.90
2022-09-10T06:08:24.251Z,15.80
2022-09-10T06:10:58.746Z,15.80
2022-09-10T06:13:25.985Z,15.80
2022-09-10T06:15:53.158Z,15.90
2022-09-10T06:18:20.281Z,15.90
2022-09-10T06:20:48.157Z,15.90
2022-09-10T06:23:18.201Z,15.90
2022-09-10T06:25:44.873Z,15.90
2022-09-10T06:28:15.320Z,16.00
2022-09-10T06:30:42.028Z,16.00
2022-09-10T06:33:08.695Z,16.00
2022-09-10T06:35:35.998Z,16.00
2022-09-10T06:38:02.698Z,16.00
2022-09-10T06:40:29.613Z,16.00
2022-09-10T06:42:56.245Z,16.00
2022-09-10T06:45:22.887Z,16.10
2022-09-10T06:50:37.554Z,16.10
2022-09-10T06:53:04.254Z,16.20
2022-09-10T06:55:31.036Z,16.30
2022-09-10T06:57:59.895Z,16.40
2022-09-10T07:00:26.561Z,16.30
2022-09-10T07:02:53.237Z,16.40
2022-09-10T07:05:19.906Z,16.40
2022-09-10T07:07:46.798Z,16.40
2022-09-10T07:10:13.531Z,16.40
2022-09-10T07:12:40.573Z,16.40
2022-09-10T07:15:07.743Z,16.40
2022-09-10T07:17:37.535Z,16.40
2022-09-10T07:20:04.692Z,16.40
2022-09-10T07:22:32.360Z,16.40
2022-09-10T07:25:00.203Z,16.50
2022-09-10T07:27:26.976Z,16.50
2022-09-10T07:29:53.677Z,16.50
2022-09-10T07:32:20.600Z,16.50
2022-09-10T07:34:47.338Z,16.50
2022-09-10T07:37:15.807Z,16.60
2022-09-10T07:39:42.768Z,16.60
2022-09-10T07:42:11.581Z,16.60
2022-09-10T07:44:38.436Z,16.70
2022-09-10T07:47:05.359Z,16.70
2022-09-10T07:49:32.630Z,16.70
2022-09-10T07:52:00.251Z,16.80
2022-09-10T07:54:28.353Z,16.80
2022-09-10T07:56:55.092Z,16.90
2022-09-10T07:59:21.802Z,16.80
2022-09-10T08:01:49.888Z,16.80
2022-09-10T08:04:16.635Z,16.80
2022-09-10T08:06:43.485Z,16.80
2022-09-10T08:09:10.193Z,16.90
2022-09-10T08:11:39.939Z,16.80
2022-09-10T08:14:06.610Z,16.80
2022-09-10T08:16:33.268Z,16.80
2022-09-10T08:19:00.579Z,16.80
2022-09-10T08:21:30.110Z,16.90
2022-09-10T08:23:57.383Z,16.90
2022-09-10T08:26:26.102Z,16.90
2022-09-10T08:28:54.018Z,17.00
2022-09-10T08:31:22.093Z,17.00
2022-09-10T08:33:50.457Z,17.00
2022-09-10T08:36:18.244Z,17.10
2022-09-10T08:38:45.871Z,17.00
2022-09-10T08:41:38.383Z,17.10
2022-09-10T08:44:17.595Z,17.10
2022-09-10T08:47:12.972Z,17.10
2022-09-10T08:49:45.660Z,17.10
2022-09-10T08:52:37.479Z,17.10
2022-09-10T08:55:16.767Z,17.20
2022-09-10T08:57:55.510Z,17.30
2022-09-10T09:00:24.833Z,17.40
2022-09-10T09:03:12.664Z,17.50
2022-09-10T09:05:53.712Z,17.70
2022-09-10T09:08:25.345Z,17.80
2022-09-10T09:11:07.895Z,17.90
2022-09-10T09:14:07.389Z,18.00
2022-09-10T09:16:48.983Z,18.20
2022-09-10T09:19:44.962Z,18.30
2022-09-10T09:22:18.964Z,18.20
2022-09-10T09:24:58.125Z,18.30
2022-09-10T09:27:30.010Z,18.40
2022-09-10T09:30:04.037Z,18.50
2022-09-10T09:32:34.435Z,18.50
2022-09-10T09:35:32.300Z,18.40
2022-09-10T09:38:07.801Z,18.50
2022-09-10T09:40:56.262Z,18.50
2022-09-10T09:43:50.771Z,18.60
2022-09-10T09:46:20.043Z,18.60
2022-09-10T09:48:47.743Z,18.50
2022-09-10T09:51:21.115Z,18.60
2022-09-10T09:54:18.464Z,18.80
2022-09-10T09:56:49.802Z,18.90
2022-09-10T09:59:27.826Z,18.80
2022-09-10T10:01:58.830Z,18.80
2022-09-10T10:04:30.954Z,18.80
2022-09-10T10:06:59.986Z,18.90
2022-09-10T10:09:38.474Z,19.00
2022-09-10T10:12:06.539Z,19.10
2022-09-10T10:14:42.969Z,19.20
2022-09-10T10:17:24.881Z,19.50
2022-09-10T10:20:02.284Z,19.60
2022-09-10T10:22:32.645Z,19.70
2022-09-10T10:25:05.302Z,19.70
2022-09-10T10:27:32.957Z,19.80
2022-09-10T10:30:03.902Z,19.80
2022-09-10T10:33:17.965Z,19.90
2022-09-10T10:36:10.571Z,19.80
2022-09-10T10:38:40.400Z,19.70
2022-09-10T10:41:21.953Z,19.60
2022-09-10T10:43:55.737Z,19.50
2022-09-10T10:46:37.345Z,19.50
2022-09-10T10:49:32.424Z,19.60
2022-09-10T10:52:05.444Z,19.70
2022-09-10T10:54:53.188Z,20.00
2022-09-10T10:57:43.208Z,20.20
2022-09-10T11:00:14.565Z,20.20
2022-09-10T11:03:10.275Z,20.30
2022-09-10T11:05:38.621Z,20.30
2022-09-10T11:08:16.398Z,20.40
2022-09-10T11:10:54.551Z,20.70
2022-09-10T11:13:50.497Z,20.80
2022-09-10T11:16:23.630Z,21.10
2022-09-10T11:18:58.012Z,21.10
2022-09-10T11:21:24.820Z,21.10
2022-09-10T11:24:02.836Z,20.80
2022-09-10T11:27:10.021Z,21.00
2022-09-10T11:30:04.249Z,21.30
2022-09-10T11:32:36.040Z,21.40
2022-09-10T11:35:23.229Z,21.10
2022-09-10T11:38:01.116Z,21.10
2022-09-10T11:40:46.302Z,20.90
2022-09-10T11:43:50.656Z,21.00
2022-09-10T11:46:32.214Z,20.90
2022-09-10T11:49:16.096Z,20.90
2022-09-10T11:51:44.865Z,20.70
2022-09-10T11:54:16.105Z,20.60
2022-09-10T11:57:03.339Z,20.50
2022-09-10T12:00:03.467Z,20.50
2022-09-10T12:02:39.146Z,20.40
2022-09-10T12:05:32.775Z,20.30
2022-09-10T12:08:08.251Z,20.20
2022-09-10T12:10:49.890Z,20.20
2022-09-10T12:13:16.758Z,20.20
2022-09-10T12:15:56.080Z,20.20
2022-09-10T12:18:42.663Z,20.20
2022-09-10T12:21:39.655Z,20.20
2022-09-10T12:24:27.001Z,20.10
2022-09-10T12:26:54.681Z,20.10
2022-09-10T12:29:33.586Z,20.10
2022-09-10T12:32:09.781Z,20.00
2022-09-10T12:34:37.773Z,20.00
2022-09-10T12:37:04.380Z,20.00
2022-09-10T12:39:31.946Z,20.20
2022-09-10T12:42:00.095Z,20.40
2022-09-10T12:44:30.902Z,20.80
2022-09-10T12:47:15.908Z,21.00
2022-09-10T12:49:49.243Z,21.30
2022-09-10T12:52:28.687Z,21.60
2022-09-10T12:55:10.304Z,21.60
2022-09-10T12:58:24.587Z,21.50
2022-09-10T13:00:58.257Z,21.50
2022-09-10T13:03:28.517Z,21.40
2022-09-10T13:05:58.976Z,21.30
2022-09-10T13:08:30.886Z,21.20
2022-09-10T13:10:59.288Z,21.10
2022-09-10T13:13:40.287Z,21.20
2022-09-10T13:16:18.007Z,21.30
2022-09-10T13:18:46.612Z,21.50
2022-09-10T13:21:25.775Z,21.70
2022-09-10T13:23:57.230Z,21.70
2022-09-10T13:26:34.166Z,21.70
2022-09-10T13:29:07.885Z,21.50
2022-09-10T13:31:38.649Z,21.40
2022-09-10T13:34:14.189Z,21.30
2022-09-10T13:37:12.333Z,21.10
2022-09-10T13:40:10.442Z,20.90
2022-09-10T13:42:58.104Z,20.80
2022-09-10T13:45:41.883Z,20.60
2022-09-10T13:48:21.242Z,20.50
2022-09-10T13:50:50.956Z,20.40
2022-09-10T13:53:19.626Z,20.30
2022-09-10T13:55:57.721Z,20.30
2022-09-10T13:58:28.651Z,20.20
2022-09-10T14:00:57.085Z,20.20
2022-09-10T14:03:30.444Z,20.10
2022-09-10T14:05:58.754Z,20.10
2022-09-10T14:08:30.592Z,20.10
2022-09-10T14:11:12.343Z,20.00
2022-09-10T14:13:55.395Z,19.90
2022-09-10T14:16:32.337Z,19.90
2022-09-10T14:19:02.274Z,19.80
2022-09-10T14:21:29.488Z,19.70
2022-09-10T14:23:58.932Z,19.60
2022-09-10T14:26:31.034Z,19.40
2022-09-10T14:29:22.965Z,19.10
2022-09-10T14:31:49.899Z,19.00
2022-09-10T14:34:36.258Z,19.00
2022-09-10T14:37:29.297Z,19.00
2022-09-10T14:39:56.650Z,18.90
2022-09-10T14:42:34.093Z,18.90
2022-09-10T14:45:02.960Z,18.90
2022-09-10T14:47:37.242Z,19.10
2022-09-10T14:50:28.080Z,19.00
2022-09-10T14:52:55.564Z,19.00
2022-09-10T14:55:25.334Z,18.90
2022-09-10T14:57:56.546Z,18.90
2022-09-10T15:00:24.565Z,18.90
2022-09-10T15:02:53.327Z,18.90
2022-09-10T15:05:20.264Z,18.90
2022-09-10T15:07:50.392Z,18.90
2022-09-10T15:10:17.200Z,19.00
2022-09-10T15:12:49.724Z,19.00
2022-09-10T15:15:17.837Z,19.00
2022-09-10T15:17:45.246Z,18.90
2022-09-10T15:20:16.873Z,18.80
2022-09-10T15:22:44.542Z,18.80
2022-09-10T15:25:26.912Z,18.90
2022-09-10T15:27:53.626Z,18.90
2022-09-10T15:30:20.288Z,18.90
2022-09-10T15:32:46.976Z,18.90
2022-09-10T15:35:13.833Z,18.90
2022-09-10T15:37:40.811Z,18.80
2022-09-10T15:40:09.252Z,18.80
2022-09-10T15:42:36.145Z,18.60
2022-09-10T15:45:02.801Z,18.60
2022-09-10T15:47:33.353Z,18.50
2022-09-10T15:49:59.996Z,18.50
2022-09-10T15:52:26.679Z,18.50
2022-09-10T15:54:54.274Z,18.50
2022-09-10T15:57:21.156Z,18.50
2022-09-10T15:59:47.764Z,18.40
2022-09-10T16:02:14.447Z,18.50
2022-09-10T16:04:43.064Z,18.50
2022-09-10T16:07:10.212Z,18.40
2022-09-10T16:09:36.872Z,18.40
2022-09-10T16:12:04.137Z,18.40
2022-09-10T16:14:32.613Z,18.40
2022-09-10T16:17:00.582Z,18.30
2022-09-10T16:19:27.260Z,18.20
2022-09-10T16:21:53.942Z,18.20
2022-09-10T16:24:20.679Z,18.20
2022-09-10T16:26:49.072Z,18.20
2022-09-10T16:29:17.624Z,18.10
2022-09-10T16:31:47.249Z,18.10
2022-09-10T16:34:17.463Z,18.10
2022-09-10T16:36:46.292Z,18.10
2022-09-10T16:39:15.432Z,18.10
2022-09-10T16:41:44.458Z,18.00
2022-09-10T16:44:12.567Z,18.00
2022-09-10T16:46:39.416Z,18.00
2022-09-10T16:49:08.565Z,18.00
2022-09-10T16:51:36.106Z,18.00
2022-09-10T16:54:05.308Z,18.00
2022-09-10T16:56:37.893Z,17.90
2022-09-10T16:59:07.512Z,17.90
2022-09-10T17:01:35.940Z,17.70
2022-09-10T17:04:04.266Z,17.70
2022-09-10T17:06:31.757Z,17.60
2022-09-10T17:09:00.647Z,17.60
2022-09-10T17:11:33.101Z,17.60
2022-09-10T17:14:03.069Z,17.50
2022-09-10T17:16:35.256Z,17.50
2022-09-10T17:19:16.755Z,17.50
2022-09-10T17:21:48.006Z,17.50
2022-09-10T17:24:14.713Z,17.50
2022-09-10T17:26:41.733Z,17.40
2022-09-10T17:29:12.539Z,17.40
2022-09-10T17:31:39.580Z,17.40
2022-09-10T17:34:06.697Z,17.40
2022-09-10T17:36:34.262Z,17.40
2022-09-10T17:39:00.956Z,17.40
2022-09-10T17:41:28.833Z,17.40
2022-09-10T17:43:57.622Z,17.40
2022-09-10T17:46:24.786Z,17.40
2022-09-10T17:48:53.532Z,17.40
2022-09-10T17:51:25.914Z,17.40
2022-09-10T17:53:55.170Z,17.30
2022-09-10T17:56:23.455Z,17.30
2022-09-10T17:58:54.717Z,17.30
2022-09-10T18:01:29.655Z,17.30
2022-09-10T18:03:56.638Z,17.20
2022-09-10T18:06:25.230Z,17.10
2022-09-10T18:08:52.029Z,17.10
2022-09-10T18:11:22.561Z,17.20
2022-09-10T18:13:52.091Z,17.20
2022-09-10T18:16:21.908Z,17.10
2022-09-10T18:18:59.295Z,17.10
2022-09-10T18:21:35.142Z,17.00
2022-09-10T18:24:07.767Z,17.00
2022-09-10T18:26:37.239Z,16.90
2022-09-10T18:29:10.717Z,17.00
2022-09-10T18:31:39.756Z,16.90
2022-09-10T18:34:08.249Z,16.90
2022-09-10T18:36:35.464Z,16.90
2022-09-10T18:39:06.921Z,17.00
2022-09-10T18:41:38.615Z,16.90
2022-09-10T18:44:09.798Z,16.90
2022-09-10T18:46:36.812Z,16.80
2022-09-10T18:49:03.572Z,16.80
2022-09-10T18:51:30.614Z,16.80
2022-09-10T18:54:00.153Z,16.90
2022-09-10T18:56:31.661Z,16.80
2022-09-10T18:59:04.601Z,16.90
2022-09-10T19:01:31.981Z,16.80
2022-09-10T19:03:59.118Z,16.80
2022-09-10T19:06:28.926Z,16.90
2022-09-10T19:09:01.346Z,16.90
2022-09-10T19:11:34.962Z,16.90
2022-09-10T19:14:04.699Z,16.90
2022-09-10T19:16:33.666Z,16.90
2022-09-10T19:19:04.336Z,16.80
2022-09-10T19:21:38.358Z,16.90
2022-09-10T19:24:05.402Z,16.80
2022-09-10T19:26:34.394Z,16.90
2022-09-10T19:29:02.261Z,16.90
2022-09-10T19:31:31.839Z,16.80
2022-09-10T19:34:04.692Z,16.80
2022-09-10T19:36:36.518Z,16.80
2022-09-10T19:39:08.869Z,16.80
2022-09-10T19:41:39.038Z,16.80
2022-09-10T19:44:07.787Z,16.80
2022-09-10T19:46:36.636Z,16.80
2022-09-10T19:49:06.069Z,16.80
2022-09-10T19:51:35.356Z,16.80
2022-09-10T19:54:02.119Z,16.80
2022-09-10T19:56:32.191Z,16.70
2022-09-10T19:58:59.942Z,16.70
2022-09-10T20:01:32.030Z,16.60
2022-09-10T20:04:04.938Z,16.60
2022-09-10T20:06:32.925Z,16.60
2022-09-10T20:08:59.944Z,16.70
2022-09-10T20:11:30.094Z,16.70
2022-09-10T20:14:01.469Z,16.60
2022-09-10T20:16:28.885Z,16.70
2022-09-10T20:18:55.880Z,16.70
2022-09-10T20:21:26.723Z,16.60
2022-09-10T20:23:55.673Z,16.60
2022-09-10T20:26:32.068Z,16.70
2022-09-10T20:29:05.177Z,16.70
2022-09-10T20:31:34.019Z,16.60
2022-09-10T20:34:03.477Z,16.70
2022-09-10T20:36:31.398Z,16.70
2022-09-10T20:38:59.513Z,16.70
2022-09-10T20:41:32.775Z,16.60
2022-09-10T20:44:01.037Z,16.70
2022-09-10T20:46:30.218Z,16.60
2022-09-10T20:49:03.431Z,16.70
2022-09-10T20:51:32.767Z,16.70
2022-09-10T20:53:59.580Z,16.60
2022-09-10T20:56:26.576Z,16.60
2022-09-10T20:58:53.215Z,16.60
2022-09-10T21:01:22.505Z,16.60
2022-09-10T21:03:52.250Z,16.60
2022-09-10T21:06:20.862Z,16.60
2022-09-10T21:08:49.519Z,16.60
2022-09-10T21:11:19.196Z,16.60
2022-09-10T21:13:50.851Z,16.60
2022-09-10T21:16:26.976Z,16.60
2022-09-10T21:18:55.653Z,16.60
2022-09-10T21:21:25.625Z,16.60
2022-09-10T21:24:22.532Z,16.60
2022-09-10T21:26:50.187Z,16.60
2022-09-10T21:29:19.434Z,16.50
2022-09-10T21:31:47.683Z,16.50
2022-09-10T21:34:14.925Z,16.50
2022-09-10T21:36:43.669Z,16.50
2022-09-10T21:39:16.387Z,16.50
2022-09-10T21:41:47.589Z,16.50
2022-09-10T21:44:16.963Z,16.50
2022-09-10T21:46:44.644Z,16.50
2022-09-10T21:49:11.874Z,16.50
2022-09-10T21:51:39.176Z,16.50
2022-09-10T21:54:06.235Z,16.50
2022-09-10T21:56:33.519Z,16.50
2022-09-10T21:59:00.867Z,16.50
2022-09-10T22:01:30.444Z,16.40
2022-09-10T22:04:00.396Z,16.50
2022-09-10T22:06:29.618Z,16.40
2022-09-10T22:09:05.418Z,16.50
2022-09-10T22:11:34.334Z,16.50
2022-09-10T22:14:03.703Z,16.40
2022-09-10T22:16:31.336Z,16.40
2022-09-10T22:19:00.258Z,16.40
2022-09-10T22:21:27.344Z,16.40
2022-09-10T22:23:54.041Z,16.40
2022-09-10T22:26:24.069Z,16.40
2022-09-10T22:29:02.528Z,16.40
2022-09-10T22:31:32.190Z,16.40
2022-09-10T22:34:14.795Z,16.40
2022-09-10T22:36:43.938Z,16.30
2022-09-10T22:39:20.941Z,16.40
2022-09-10T22:41:49.218Z,16.40
2022-09-10T22:44:17.879Z,16.40
2022-09-10T22:46:44.984Z,16.40
2022-09-10T22:49:11.781Z,16.40
2022-09-10T22:51:41.024Z,16.50
2022-09-10T22:54:08.897Z,16.40
2022-09-10T22:56:35.913Z,16.40
2022-09-10T22:59:03.932Z,16.40
2022-09-10T23:01:35.540Z,16.40
2022-09-10T23:04:02.785Z,16.40
2022-09-10T23:06:31.849Z,16.40
2022-09-10T23:09:04.738Z,16.40
2022-09-10T23:11:32.475Z,16.40
2022-09-10T23:14:01.957Z,16.40
2022-09-10T23:16:31.984Z,16.40
2022-09-10T23:19:00.806Z,16.40
2022-09-10T23:21:29.733Z,16.40
2022-09-10T23:23:58.960Z,16.40
2022-09-10T23:26:26.291Z,16.40
2022-09-10T23:28:54.079Z,16.40
2022-09-10T23:31:26.599Z,16.40
2022-09-10T23:33:57.227Z,16.40
2022-09-10T23:36:28.570Z,16.40
2022-09-10T23:38:55.308Z,16.40
2022-09-10T23:41:21.982Z,16.40
2022-09-10T23:43:48.709Z,16.40
2022-09-10T23:46:15.563Z,16.40
2022-09-10T23:48:43.054Z,16.40
2022-09-10T23:51:13.614Z,16.30
2022-09-10T23:53:40.586Z,16.30
2022-09-10T23:56:07.467Z,16.30
2022-09-10T23:58:34.408Z,16.40
